Bookmark and Share
Track history (hours):
 

Stena Germanica

Last reported at 2014-Apr-23 23:34 UTC. Time now 2014-Apr-24 00:29 UTC.
Position N 55°09' E 018°03'.

Length 176 m; draft 6.4 m.

Type: Ship (hazmat cat A). MMSI: 265292000.

NotesDate/timePositionNaut miles runAvg speedWind from/ knotsBaromVisibWave heightAir tempDewpointWater temp
2014-Apr-23 23:34N 55°09' E 018°03'1818.3
2014-Apr-23 22:33N 54°58' E 018°30'1717.2
2014-Apr-23 21:33N 54°46' E 018°50'1413.9
2014-Apr-23 20:33N 54°32' E 018°49'1110.4
2014-Apr-23 19:31N 54°33' E 018°30'0 0.0
2014-Apr-23 18:31N 54°33' E 018°30'0 0.0
2014-Apr-23 17:33N 54°33' E 018°30'6 6.1
2014-Apr-23 16:33N 54°32' E 018°41'1313.0
2014-Apr-23 15:33N 54°42' E 018°55'1818.4
2014-Apr-23 14:33N 54°57' E 018°35'1817.8
2014-Apr-23 13:33N 55°07' E 018°09'1717.3
2014-Apr-23 12:33N 55°16' E 017°44'1817.6
2014-Apr-23 11:33N 55°26' E 017°17'1716.6
2014-Apr-23 10:33N 55°35' E 016°52'1817.8
2014-Apr-23 09:31N 55°44' E 016°25'1918.2
2014-Apr-23 08:30N 55°55' E 015°58'1515.4
2014-Apr-23 07:33N 56°03' E 015°36'7 6.7
2014-Apr-23 06:30N 56°10' E 015°38'0 0.1
2014-Apr-23 05:33N 56°10' E 015°38'1211.9
2014-Apr-23 04:33N 55°59' E 015°47'1717.5
2014-Apr-23 03:33N 55°50' E 016°13'1817.9
2014-Apr-23 02:33N 55°40' E 016°40'1816.9
2014-Apr-23 01:30N 55°30' E 017°06'1617.0
2014-Apr-23 00:33N 55°21' E 017°29'1717.4
2014-Apr-22 23:33N 55°12' E 017°55'1717.4
2014-Apr-22 22:34N 55°02' E 018°20'1717.0
2014-Apr-22 21:33N 54°51' E 018°43'1615.7
2014-Apr-22 20:33N 54°37' E 018°56'1313.1
2014-Apr-22 19:34N 54°32' E 018°35'3 2.6
2014-Apr-22 18:31N 54°33' E 018°30'0 0.0
2014-Apr-22 17:33N 54°33' E 018°30'6 6.1
2014-Apr-22 16:33N 54°32' E 018°41'1313.2
2014-Apr-22 15:34N 54°43' E 018°53'1717.3
2014-Apr-22 14:33N 54°56' E 018°34'1716.8
2014-Apr-22 13:34N 55°06' E 018°10'2317.2
2014-Apr-22 12:13N 55°18' E 017°35'3116.8
2014-Apr-22 10:24N 55°35' E 016°51'3318.0
2014-Apr-22 08:33N 55°54' E 016°02'1716.8
2014-Apr-22 07:33N 56°03' E 015°37'7 7.0
2014-Apr-22 06:31N 56°10' E 015°38'1 0.7
2014-Apr-22 05:33N 56°09' E 015°37'1211.7
2014-Apr-22 04:33N 55°59' E 015°47'1514.5
2014-Apr-22 03:33N 55°51' E 016°09'7514.5
2014-Apr-21 22:24N 55°10' E 017°58'1214.4
2014-Apr-21 21:33N 55°03' E 018°16'1414.4
2014-Apr-21 20:34N 54°55' E 018°36'1514.7
2014-Apr-21 19:34N 54°44' E 018°53'1212.4
2014-Apr-21 18:34N 54°32' E 018°48'1010.2
2014-Apr-21 17:33N 54°33' E 018°31'0 0.4
2014-Apr-21 16:33N 54°33' E 018°30'0 0.0
2014-Apr-21 15:33N 54°33' E 018°30'0 0.0
2014-Apr-21 14:33N 54°33' E 018°30'0 0.0
2014-Apr-21 13:33N 54°33' E 018°30'0 0.0
2014-Apr-21 12:33N 54°33' E 018°30'0 0.0
2014-Apr-21 11:33N 54°33' E 018°30'0 0.0
2014-Apr-21 10:32N 54°33' E 018°30'0 0.0
2014-Apr-21 09:33N 54°33' E 018°30'0 0.0
2014-Apr-21 08:32N 54°33' E 018°30'0 0.0
2014-Apr-21 07:33N 54°33' E 018°30'1 1.3
2014-Apr-21 06:33N 54°32' E 018°32'1212.1
2014-Apr-21 05:34N 54°35' E 018°52'1312.7
2014-Apr-21 04:34N 54°48' E 018°47'1514.7
2014-Apr-21 03:33N 54°59' E 018°30'1514.6
2014-Apr-21 02:33N 55°07' E 018°09'4414.7
2014-Apr-20 23:33N 55°30' E 017°04'2914.6
2014-Apr-20 21:33N 55°47' E 016°21'1514.7
2014-Apr-20 20:33N 55°55' E 015°59'1514.7
2014-Apr-20 19:33N 56°03' E 015°37'7 7.3
2014-Apr-20 18:33N 56°10' E 015°38'0 0.0
2014-Apr-20 17:33N 56°10' E 015°38'9 9.2
2014-Apr-20 16:33N 56°01' E 015°42'1616.4
2014-Apr-20 15:33N 55°52' E 016°06'3617.0
2014-Apr-20 13:25N 55°32' E 016°60'1816.9
2014-Apr-20 12:20N 55°22' E 017°27'1917.1
2014-Apr-20 11:12N 55°11' E 017°56'1117.0
2014-Apr-20 10:33N 55°06' E 018°12'1717.0
2014-Apr-20 09:34N 54°56' E 018°36'1717.4
2014-Apr-20 08:33N 54°42' E 018°56'1413.6
2014-Apr-20 07:33N 54°32' E 018°41'6 6.2
2014-Apr-20 06:33N 54°33' E 018°30'0 0.0
2014-Apr-20 05:34N 54°33' E 018°30'7 6.9
2014-Apr-20 04:34N 54°32' E 018°42'1313.1
2014-Apr-20 03:33N 54°44' E 018°53'1716.8
2014-Apr-20 02:33N 54°57' E 018°35'1717.2
2014-Apr-20 01:33N 55°06' E 018°09'1716.8
2014-Apr-20 00:33N 55°16' E 017°45'1716.9
2014-Apr-19 23:33N 55°25' E 017°20'1716.7
2014-Apr-19 22:33N 55°34' E 016°55'1716.8
2014-Apr-19 21:33N 55°43' E 016°30'1716.7
2014-Apr-19 20:34N 55°52' E 016°05'1616.4
2014-Apr-19 19:34N 56°01' E 015°41'9 8.5
2014-Apr-19 18:31N 56°10' E 015°38'0 0.0
2014-Apr-19 17:32N 56°10' E 015°38'9 9.5
2014-Apr-19 16:34N 56°01' E 015°42'1717.2
2014-Apr-19 15:34N 55°52' E 016°09'6817.1
2014-Apr-19 11:33N 55°14' E 017°49'1717.1
2014-Apr-19 10:34N 55°05' E 018°14'1717.0
2014-Apr-19 09:34N 54°54' E 018°37'1717.2
2014-Apr-19 08:34N 54°41' E 018°57'1414.1
2014-Apr-19 07:34N 54°32' E 018°39'5 5.1
2014-Apr-19 06:33N 54°33' E 018°30'0 0.0
2014-Apr-19 05:33N 54°33' E 018°30'7 6.8
2014-Apr-19 04:33N 54°32' E 018°42'1212.4
2014-Apr-19 03:34N 54°42' E 018°55'1414.4
2014-Apr-19 02:34N 54°53' E 018°39'1414.1
2014-Apr-19 01:33N 55°02' E 018°20'1414.5
2014-Apr-19 00:33N 55°09' E 017°58'1614.5
2014-Apr-18 23:25N 55°17' E 017°33'4114.5
2014-Apr-18 20:34N 55°38' E 016°30'1514.5
2014-Apr-18 19:30N 55°45' E 016°06'1414.3
2014-Apr-18 18:33N 55°53' E 015°47'1313.3
2014-Apr-18 17:34N 56°05' E 015°34'6 5.7
2014-Apr-18 16:32N 56°10' E 015°38'0 0.0
2014-Apr-18 15:32N 56°10' E 015°38'0 0.0
2014-Apr-18 14:32N 56°10' E 015°38'0 0.0
2014-Apr-18 13:32N 56°10' E 015°38'0 0.0
2014-Apr-18 12:32N 56°10' E 015°38'0 0.0
2014-Apr-18 11:32N 56°10' E 015°38'0 0.0
2014-Apr-18 10:32N 56°10' E 015°38'0 0.0
2014-Apr-18 09:32N 56°10' E 015°38'0 0.0
2014-Apr-18 08:32N 56°10' E 015°38'0 0.0
2014-Apr-18 07:32N 56°10' E 015°38'4 3.9
2014-Apr-18 06:33N 56°07' E 015°35'1413.5
2014-Apr-18 05:33N 55°57' E 015°52'8914.4
2014-Apr-17 23:24N 55°08' E 018°03'1315.3
2014-Apr-17 22:33N 55°02' E 018°23'1615.6
2014-Apr-17 21:33N 54°52' E 018°44'1515.0
2014-Apr-17 20:33N 54°39' E 018°57'1414.0
2014-Apr-17 19:33N 54°32' E 018°36'3 3.1
2014-Apr-17 18:31N 54°33' E 018°30'1 0.7
2014-Apr-17 17:34N 54°32' E 018°31'1414.0
2014-Apr-17 16:33N 54°37' E 018°54'1616.2
2014-Apr-17 15:33N 54°51' E 018°41'1818.1
2014-Apr-17 14:34N 55°02' E 018°15'9118.2
2014-Apr-17 09:33N 55°55' E 016°05'1717.4
2014-Apr-17 08:33N 56°03' E 015°37'7 7.0
2014-Apr-17 07:31N 56°10' E 015°38'0 0.0
2014-Apr-17 06:31N 56°10' E 015°38'0 0.1
2014-Apr-17 05:34N 56°10' E 015°38'1212.3
2014-Apr-17 04:33N 55°59' E 015°48'1616.5
2014-Apr-17 03:33N 55°50' E 016°12'1716.6
2014-Apr-17 02:31N 55°40' E 016°38'1716.4
2014-Apr-17 01:30N 55°31' E 017°03'1516.2
2014-Apr-17 00:33N 55°23' E 017°26'1616.5
2014-Apr-16 23:33N 55°14' E 017°49'1716.5
2014-Apr-16 22:34N 55°05' E 018°13'1616.3
2014-Apr-16 21:33N 54°55' E 018°37'1716.8
2014-Apr-16 20:33N 54°43' E 018°56'1413.8
2014-Apr-16 19:33N 54°32' E 018°41'6 6.0
2014-Apr-16 18:31N 54°33' E 018°30'0 0.0
2014-Apr-16 17:34N 54°33' E 018°30'9 8.5
2014-Apr-16 16:33N 54°32' E 018°45'1313.5
2014-Apr-16 15:33N 54°46' E 018°50'1717.4
2014-Apr-16 14:33N 54°58' E 018°30'1817.6
2014-Apr-16 13:33N 55°08' E 018°04'7017.4
2014-Apr-16 09:32N 55°44' E 016°18'1717.0
2014-Apr-16 08:33N 55°55' E 015°56'1616.0
2014-Apr-16 07:33N 56°05' E 015°34'5 5.1
2014-Apr-16 06:31N 56°10' E 015°38'0 0.3
2014-Apr-16 05:33N 56°10' E 015°37'1312.8
2014-Apr-16 04:34N 55°59' E 015°49'8316.5
2014-Apr-15 23:31N 55°14' E 017°53'1616.8
2014-Apr-15 22:33N 55°03' E 018°14'1616.2
2014-Apr-15 21:34N 54°53' E 018°35'1616.2
2014-Apr-15 20:33N 54°42' E 018°56'1212.5
2014-Apr-15 19:34N 54°32' E 018°44'8 7.9
2014-Apr-15 18:33N 54°33' E 018°30'0 0.0
2014-Apr-15 17:33N 54°33' E 018°30'7 7.4
2014-Apr-15 16:34N 54°32' E 018°43'1313.1
2014-Apr-15 15:33N 54°44' E 018°51'1817.6
2014-Apr-15 14:33N 54°56' E 018°28'18 8.9
2014-Apr-15 12:34N 55°08' E 018°05'8917.9
2014-Apr-15 07:34N 55°57' E 015°53'1514.6
2014-Apr-15 06:34N 56°08' E 015°36'3 2.5
2014-Apr-15 05:33N 56°10' E 015°38'11 5.5
2014-Apr-15 03:34N 55°60' E 015°45'1413.5
2014-Apr-15 02:33N 55°52' E 016°05'8313.7
2014-Apr-14 20:31N 55°08' E 018°08'1414.4
2014-Apr-14 19:34N 55°00' E 018°28'1615.8
2014-Apr-14 18:34N 54°48' E 018°47'1414.2
2014-Apr-14 17:34N 54°35' E 018°53'1312.7
2014-Apr-14 16:34N 54°33' E 018°31'0 0.5
2014-Apr-14 15:33N 54°33' E 018°30'0 0.0
2014-Apr-14 14:33N 54°33' E 018°30'0 0.0
2014-Apr-14 13:33N 54°33' E 018°30'0 0.0
2014-Apr-14 11:33N 54°33' E 018°30'0 0.0
2014-Apr-14 10:33N 54°33' E 018°30'0 0.0
2014-Apr-14 09:33N 54°33' E 018°30'0 0.0
2014-Apr-14 08:33N 54°33' E 018°30'0 0.0
2014-Apr-14 07:33N 54°33' E 018°30'0 0.0
2014-Apr-14 06:33N 54°33' E 018°30'1 1.0
2014-Apr-14 05:33N 54°32' E 018°32'  

Dump ship's entire track history

sailing weather and tide predictions

Stena Germanica — SKPZ — position and weather